createdAt,value
2016-07-06T00:00:19.719Z,963.87
2016-07-06T00:01:19.731Z,963.86
2016-07-06T00:02:19.742Z,963.85
2016-07-06T00:03:19.742Z,963.85
2016-07-06T00:04:19.763Z,963.83
2016-07-06T00:05:19.763Z,963.87
2016-07-06T00:06:19.780Z,963.84
2016-07-06T00:07:19.787Z,963.84
2016-07-06T00:08:19.802Z,963.84
2016-07-06T00:09:19.800Z,963.82
2016-07-06T00:10:19.810Z,963.84
2016-07-06T00:11:19.819Z,963.82
2016-07-06T00:12:19.834Z,963.8
2016-07-06T00:13:19.839Z,963.78
2016-07-06T00:14:19.856Z,963.81
2016-07-06T00:15:19.862Z,963.84
2016-07-06T00:16:19.865Z,963.83
2016-07-06T00:17:19.875Z,963.85
2016-07-06T00:18:19.883Z,963.85
2016-07-06T00:19:19.898Z,963.83
2016-07-06T00:20:19.900Z,963.86
2016-07-06T00:21:19.918Z,963.86
2016-07-06T00:22:19.928Z,963.84
2016-07-06T00:23:19.934Z,963.88
2016-07-06T00:24:19.943Z,963.86
2016-07-06T00:25:19.954Z,963.84
2016-07-06T00:26:19.955Z,963.84
2016-07-06T00:27:19.968Z,963.88
2016-07-06T00:28:19.972Z,963.9
2016-07-06T00:29:19.983Z,963.87
2016-07-06T00:30:19.993Z,963.88
2016-07-06T00:31:20.010Z,963.9
2016-07-06T00:32:20.014Z,963.9
2016-07-06T00:33:20.025Z,963.92
2016-07-06T00:34:20.031Z,963.97
2016-07-06T00:35:20.048Z,963.93
2016-07-06T00:36:20.045Z,963.95
2016-07-06T00:37:20.054Z,963.94
2016-07-06T00:38:20.074Z,963.96
2016-07-06T00:39:20.079Z,963.96
2016-07-06T00:40:20.094Z,963.95
2016-07-06T00:41:20.103Z,963.94
2016-07-06T00:42:20.109Z,963.96
2016-07-06T00:43:20.123Z,963.95
2016-07-06T00:44:20.128Z,963.92
2016-07-06T00:45:20.131Z,963.92
2016-07-06T00:46:20.145Z,963.91
2016-07-06T00:47:20.151Z,963.93
2016-07-06T00:48:20.161Z,963.94
2016-07-06T00:49:20.179Z,963.92
2016-07-06T00:50:20.185Z,963.96
2016-07-06T00:51:20.194Z,963.95
2016-07-06T00:52:20.190Z,963.96
2016-07-06T00:53:20.211Z,963.95
2016-07-06T00:54:20.213Z,963.92
2016-07-06T00:55:20.224Z,963.9
2016-07-06T00:56:20.231Z,963.94
2016-07-06T00:57:20.247Z,963.89
2016-07-06T00:58:20.257Z,963.86
2016-07-06T00:59:20.260Z,963.87
2016-07-06T01:00:20.269Z,963.86
2016-07-06T01:01:20.284Z,963.92
2016-07-06T01:02:20.293Z,963.86
2016-07-06T01:03:20.297Z,963.89
2016-07-06T01:04:20.306Z,963.84
2016-07-06T01:05:20.324Z,963.89
2016-07-06T01:06:20.328Z,963.91
2016-07-06T01:07:20.333Z,963.91
2016-07-06T01:08:20.338Z,963.85
2016-07-06T01:09:20.419Z,963.86
2016-07-06T01:10:20.425Z,963.88
2016-07-06T01:11:20.434Z,963.88
2016-07-06T01:12:20.385Z,963.91
2016-07-06T01:13:20.394Z,963.93
2016-07-06T01:14:20.397Z,963.89
2016-07-06T01:15:20.407Z,963.92
2016-07-06T01:16:20.421Z,963.89
2016-07-06T01:17:20.431Z,963.89
2016-07-06T01:18:20.429Z,963.93
2016-07-06T01:19:20.455Z,963.84
2016-07-06T01:20:20.458Z,963.84
2016-07-06T01:21:20.454Z,963.82
2016-07-06T01:22:20.470Z,963.81
2016-07-06T01:23:20.479Z,963.84
2016-07-06T01:24:20.483Z,963.85
2016-07-06T01:25:20.497Z,963.85
2016-07-06T01:26:20.501Z,963.8
2016-07-06T01:27:20.522Z,963.81
2016-07-06T01:28:20.525Z,963.77
2016-07-06T01:29:20.528Z,963.79
2016-07-06T01:30:20.551Z,963.77
2016-07-06T01:31:20.553Z,963.75
2016-07-06T01:32:20.561Z,963.8
2016-07-06T01:33:20.567Z,963.78
2016-07-06T01:34:20.581Z,963.81
2016-07-06T01:35:20.593Z,963.79
2016-07-06T01:36:20.597Z,963.85
2016-07-06T01:37:20.607Z,963.82
2016-07-06T01:38:20.614Z,963.81
2016-07-06T01:39:20.630Z,963.83
2016-07-06T01:40:20.633Z,963.84
2016-07-06T01:41:20.645Z,963.81
2016-07-06T01:42:20.647Z,963.87
2016-07-06T01:43:20.659Z,963.88
2016-07-06T01:44:20.669Z,963.83
2016-07-06T01:45:20.688Z,963.86
2016-07-06T01:46:20.686Z,963.85
2016-07-06T01:47:20.704Z,963.86
2016-07-06T01:48:20.706Z,963.87
2016-07-06T01:49:20.721Z,963.91
2016-07-06T01:50:20.729Z,963.88
2016-07-06T01:51:20.745Z,963.93
2016-07-06T01:52:20.750Z,963.89
2016-07-06T01:53:20.755Z,963.9
2016-07-06T01:54:20.757Z,963.88
2016-07-06T01:55:20.772Z,963.88
2016-07-06T01:56:20.800Z,963.89
2016-07-06T01:57:20.783Z,963.88
2016-07-06T01:58:20.795Z,963.89
2016-07-06T01:59:20.806Z,963.93
2016-07-06T02:00:20.814Z,963.93
2016-07-06T02:01:20.825Z,963.92
2016-07-06T02:02:20.839Z,963.88
2016-07-06T02:03:20.850Z,963.89
2016-07-06T02:04:20.852Z,963.87
2016-07-06T02:05:20.864Z,963.87
2016-07-06T02:06:20.877Z,963.87
2016-07-06T02:07:20.891Z,963.83
2016-07-06T02:08:20.893Z,963.84
2016-07-06T02:09:20.904Z,963.86
2016-07-06T02:10:20.904Z,963.88
2016-07-06T02:11:20.926Z,963.84
2016-07-06T02:12:20.929Z,963.87
2016-07-06T02:13:20.940Z,963.86
2016-07-06T02:14:20.946Z,963.85
2016-07-06T02:15:20.955Z,963.85
2016-07-06T02:16:20.968Z,963.86
2016-07-06T02:17:20.971Z,963.85
2016-07-06T02:18:20.989Z,963.88
2016-07-06T02:19:20.995Z,963.87
2016-07-06T02:20:20.998Z,963.89
2016-07-06T02:21:21.013Z,963.85
2016-07-06T02:22:21.014Z,963.86
2016-07-06T02:23:21.033Z,963.92
2016-07-06T02:24:21.042Z,963.9
2016-07-06T02:25:21.050Z,963.88
2016-07-06T02:26:21.050Z,963.9
2016-07-06T02:27:21.062Z,963.87
2016-07-06T02:28:21.076Z,963.93
2016-07-06T02:29:21.078Z,963.96
2016-07-06T02:30:21.093Z,963.96
2016-07-06T02:31:21.105Z,963.96
2016-07-06T02:32:21.105Z,963.95
2016-07-06T02:33:21.116Z,963.95
2016-07-06T02:34:21.131Z,963.96
2016-07-06T02:35:21.147Z,963.92
2016-07-06T02:36:21.143Z,963.93
2016-07-06T02:37:21.156Z,963.92
2016-07-06T02:38:21.165Z,963.92
2016-07-06T02:39:21.181Z,963.95
2016-07-06T02:40:21.179Z,963.95
2016-07-06T02:41:21.187Z,963.97
2016-07-06T02:42:21.196Z,963.95
2016-07-06T02:43:21.205Z,963.95
2016-07-06T02:44:21.216Z,963.94
2016-07-06T02:45:21.242Z,963.97
2016-07-06T02:46:21.231Z,963.97
2016-07-06T02:47:21.252Z,963.97
2016-07-06T02:48:21.250Z,963.96
2016-07-06T02:49:21.267Z,963.97
2016-07-06T02:50:21.273Z,964
2016-07-06T02:51:21.287Z,963.97
2016-07-06T02:52:21.289Z,963.99
2016-07-06T02:53:21.294Z,963.93
2016-07-06T02:54:21.308Z,963.99
2016-07-06T02:55:21.319Z,963.96
2016-07-06T02:56:21.339Z,963.98
2016-07-06T02:57:21.328Z,964
2016-07-06T02:58:21.346Z,964.02
2016-07-06T02:59:21.354Z,963.98
2016-07-06T03:00:21.357Z,964.05
2016-07-06T03:01:21.367Z,964.03
2016-07-06T03:02:21.387Z,964.04
2016-07-06T03:03:21.385Z,964.07
2016-07-06T03:04:21.398Z,964.03
2016-07-06T03:05:21.410Z,964.06
2016-07-06T03:06:21.411Z,964.1
2016-07-06T03:07:21.422Z,964.1
2016-07-06T03:08:21.437Z,964.13
2016-07-06T03:09:21.436Z,964.13
2016-07-06T03:10:21.447Z,964.15
2016-07-06T03:11:21.466Z,964.16
2016-07-06T03:12:21.468Z,964.17
2016-07-06T03:13:21.472Z,964.12
2016-07-06T03:14:21.498Z,964.07
2016-07-06T03:15:21.498Z,964.12
2016-07-06T03:16:21.505Z,964.12
2016-07-06T03:17:21.509Z,964.13
2016-07-06T03:18:21.525Z,964.16
2016-07-06T03:19:21.536Z,964.15
2016-07-06T03:20:21.543Z,964.17
2016-07-06T03:21:21.543Z,964.17
2016-07-06T03:22:21.549Z,964.2
2016-07-06T03:23:21.566Z,964.24
2016-07-06T03:24:21.584Z,964.18
2016-07-06T03:25:21.591Z,964.21
2016-07-06T03:26:21.591Z,964.21
2016-07-06T03:27:21.610Z,964.21
2016-07-06T03:28:21.614Z,964.22
2016-07-06T03:29:21.619Z,964.23
2016-07-06T03:30:21.630Z,964.24
2016-07-06T03:31:21.643Z,964.25
2016-07-06T03:32:21.646Z,964.21
2016-07-06T03:33:21.663Z,964.21
2016-07-06T03:34:21.670Z,964.2
2016-07-06T03:35:21.680Z,964.24
2016-07-06T03:36:21.684Z,964.25
2016-07-06T03:37:21.692Z,964.24
2016-07-06T03:38:21.702Z,964.25
2016-07-06T03:39:21.716Z,964.26
2016-07-06T03:40:21.719Z,964.24
2016-07-06T03:41:21.738Z,964.2
2016-07-06T03:42:21.738Z,964.23
2016-07-06T03:43:21.747Z,964.2
2016-07-06T03:44:21.756Z,964.17
2016-07-06T03:45:21.765Z,964.18
2016-07-06T03:46:21.774Z,964.19
2016-07-06T03:47:21.785Z,964.25
2016-07-06T03:48:21.791Z,964.25
2016-07-06T03:49:21.797Z,964.23
2016-07-06T03:50:21.815Z,964.24
2016-07-06T03:51:21.813Z,964.21
2016-07-06T03:52:21.834Z,964.26
2016-07-06T03:53:21.837Z,964.27
2016-07-06T03:54:21.842Z,964.32
2016-07-06T03:55:21.860Z,964.32
2016-07-06T03:56:21.864Z,964.28
2016-07-06T03:57:21.872Z,964.33
2016-07-06T03:58:21.877Z,964.32
2016-07-06T03:59:21.898Z,964.28
2016-07-06T04:00:21.899Z,964.29
2016-07-06T04:01:21.913Z,964.34
2016-07-06T04:02:21.915Z,964.35
2016-07-06T04:03:21.929Z,964.38
2016-07-06T04:04:21.943Z,964.37
2016-07-06T04:05:21.953Z,964.4
2016-07-06T04:06:21.960Z,964.41
2016-07-06T04:07:21.963Z,964.39
2016-07-06T04:08:21.975Z,964.36
2016-07-06T04:09:21.984Z,964.39
2016-07-06T04:10:21.988Z,964.4
2016-07-06T04:11:21.997Z,964.4
2016-07-06T04:12:22.013Z,964.42
2016-07-06T04:13:22.014Z,964.43
2016-07-06T04:14:22.021Z,964.45
2016-07-06T04:15:22.038Z,964.42
2016-07-06T04:16:22.046Z,964.44
2016-07-06T04:17:22.059Z,964.43
2016-07-06T04:18:22.061Z,964.42
2016-07-06T04:19:22.073Z,964.47
2016-07-06T04:20:22.082Z,964.48
2016-07-06T04:21:22.093Z,964.49
2016-07-06T04:22:22.095Z,964.48
2016-07-06T04:23:22.118Z,964.5
2016-07-06T04:24:22.122Z,964.49
2016-07-06T04:25:22.121Z,964.5
2016-07-06T04:26:22.129Z,964.54
2016-07-06T04:27:22.141Z,964.56
2016-07-06T04:28:22.152Z,964.52
2016-07-06T04:29:22.155Z,964.52
2016-07-06T04:30:22.174Z,964.5
2016-07-06T04:31:22.174Z,964.49
2016-07-06T04:32:22.185Z,964.44
2016-07-06T04:33:22.199Z,964.42
2016-07-06T04:34:22.200Z,964.45
2016-07-06T04:35:22.209Z,964.44
2016-07-06T04:36:22.227Z,964.48
2016-07-06T04:37:22.227Z,964.47
2016-07-06T04:38:22.240Z,964.44
2016-07-06T04:39:22.252Z,964.41
2016-07-06T04:40:22.260Z,964.42
2016-07-06T04:41:22.267Z,964.42
2016-07-06T04:42:22.283Z,964.43
2016-07-06T04:43:22.283Z,964.47
2016-07-06T04:44:22.298Z,964.45
2016-07-06T04:45:22.297Z,964.45
2016-07-06T04:46:22.309Z,964.43
2016-07-06T04:47:22.318Z,964.42
2016-07-06T04:48:22.329Z,964.42
2016-07-06T04:49:22.339Z,964.41
2016-07-06T04:50:22.343Z,964.4
2016-07-06T04:51:22.362Z,964.39
2016-07-06T04:52:22.370Z,964.4
2016-07-06T04:53:22.365Z,964.39
2016-07-06T04:54:22.388Z,964.41
2016-07-06T04:55:22.391Z,964.46
2016-07-06T04:56:22.409Z,964.43
2016-07-06T04:57:22.407Z,964.44
2016-07-06T04:58:22.418Z,964.45
2016-07-06T04:59:22.426Z,964.43
2016-07-06T05:00:22.439Z,964.39
2016-07-06T05:01:22.443Z,964.36
2016-07-06T05:02:22.458Z,964.39
2016-07-06T05:03:22.473Z,964.46
2016-07-06T05:04:22.465Z,964.46
2016-07-06T05:05:22.476Z,964.42
2016-07-06T05:06:22.493Z,964.49
2016-07-06T05:07:22.493Z,964.47
2016-07-06T05:08:22.499Z,964.47
2016-07-06T05:09:22.517Z,964.52
2016-07-06T05:10:22.530Z,964.45
2016-07-06T05:11:22.528Z,964.45
2016-07-06T05:12:22.547Z,964.47
2016-07-06T05:13:22.548Z,964.46
2016-07-06T05:14:22.558Z,964.47
2016-07-06T05:15:22.578Z,964.45
2016-07-06T05:16:22.586Z,964.43
2016-07-06T05:17:22.600Z,964.49
2016-07-06T05:18:22.606Z,964.48
2016-07-06T05:19:22.608Z,964.5
2016-07-06T05:20:22.617Z,964.5
2016-07-06T05:21:22.634Z,964.5
2016-07-06T05:22:22.634Z,964.49
2016-07-06T05:23:22.644Z,964.51
2016-07-06T05:24:22.654Z,964.56
2016-07-06T05:25:22.663Z,964.61
2016-07-06T05:26:22.673Z,964.62
2016-07-06T05:27:22.692Z,964.64
2016-07-06T05:28:22.691Z,964.64
2016-07-06T05:29:22.698Z,964.62
2016-07-06T05:30:22.718Z,964.57
2016-07-06T05:31:22.723Z,964.56
2016-07-06T05:32:22.736Z,964.59
2016-07-06T05:33:22.733Z,964.65
2016-07-06T05:34:22.752Z,964.65
2016-07-06T05:35:22.761Z,964.66
2016-07-06T05:36:22.762Z,964.7
2016-07-06T05:37:22.782Z,964.75
2016-07-06T05:38:22.784Z,964.71
2016-07-06T05:39:22.798Z,964.71
2016-07-06T05:40:22.797Z,964.72
2016-07-06T05:41:22.812Z,964.67
2016-07-06T05:42:22.821Z,964.74
2016-07-06T05:43:22.829Z,964.83
2016-07-06T05:44:22.844Z,964.84
2016-07-06T05:45:22.843Z,964.86
2016-07-06T05:46:22.862Z,964.85
2016-07-06T05:47:22.866Z,964.87
2016-07-06T05:48:22.876Z,964.89
2016-07-06T05:49:22.892Z,964.87
2016-07-06T05:50:22.899Z,964.89
2016-07-06T05:51:22.900Z,964.87
2016-07-06T05:52:22.917Z,964.87
2016-07-06T05:53:22.918Z,964.93
2016-07-06T05:54:22.929Z,964.96
2016-07-06T05:55:22.943Z,965
2016-07-06T05:56:22.944Z,965.02
2016-07-06T05:57:22.961Z,965.04
2016-07-06T05:58:22.971Z,965.02
2016-07-06T05:59:22.976Z,965.01
2016-07-06T06:00:22.983Z,965.06
2016-07-06T06:01:22.988Z,965.05
2016-07-06T06:02:23.000Z,965.07
2016-07-06T06:03:23.017Z,965.06
2016-07-06T06:04:23.017Z,965.04
2016-07-06T06:05:23.029Z,964.99
2016-07-06T06:06:23.036Z,965.01
2016-07-06T06:07:23.044Z,964.99
2016-07-06T06:08:23.053Z,965.02
2016-07-06T06:09:23.060Z,965.03
2016-07-06T06:10:23.077Z,965.09
2016-07-06T06:11:23.081Z,965.12
2016-07-06T06:12:23.096Z,965.13
2016-07-06T06:13:23.100Z,965.16
2016-07-06T06:14:23.115Z,965.17
2016-07-06T06:15:23.118Z,965.15
2016-07-06T06:16:23.141Z,965.18
2016-07-06T06:17:23.141Z,965.17
2016-07-06T06:18:23.152Z,965.19
2016-07-06T06:19:23.159Z,965.17
2016-07-06T06:20:23.161Z,965.21
2016-07-06T06:21:23.182Z,965.19
2016-07-06T06:22:23.186Z,965.19
2016-07-06T06:23:23.188Z,965.14
2016-07-06T06:24:23.204Z,965.14
2016-07-06T06:25:23.204Z,965.13
2016-07-06T06:26:23.218Z,965.12
2016-07-06T06:27:23.278Z,965.12
2016-07-06T06:28:23.241Z,965.09
2016-07-06T06:29:23.247Z,965.1
2016-07-06T06:30:23.255Z,965.06
2016-07-06T06:31:23.266Z,965.05
2016-07-06T06:32:23.271Z,965.08
2016-07-06T06:33:23.287Z,965.09
2016-07-06T06:34:23.295Z,965.1
2016-07-06T06:35:23.301Z,965.1
2016-07-06T06:36:23.314Z,965.08
2016-07-06T06:37:23.324Z,965.13
2016-07-06T06:38:23.329Z,965.1
2016-07-06T06:39:23.337Z,965.1
2016-07-06T06:40:23.343Z,965.12
2016-07-06T06:41:23.353Z,965.17
2016-07-06T06:42:23.369Z,965.11
2016-07-06T06:43:23.372Z,965.18
2016-07-06T06:44:23.382Z,965.24
2016-07-06T06:45:23.400Z,965.2
2016-07-06T06:46:23.404Z,965.2
2016-07-06T06:47:23.413Z,965.22
2016-07-06T06:48:23.412Z,965.24
2016-07-06T06:49:23.425Z,965.25
2016-07-06T06:50:23.440Z,965.27
2016-07-06T06:51:23.446Z,965.26
2016-07-06T06:52:23.459Z,965.27
2016-07-06T06:53:23.467Z,965.26
2016-07-06T06:54:23.478Z,965.29
2016-07-06T06:55:23.484Z,965.26
2016-07-06T06:56:23.495Z,965.25
2016-07-06T06:57:23.503Z,965.27
2016-07-06T06:58:23.504Z,965.34
2016-07-06T06:59:23.519Z,965.31
2016-07-06T07:00:23.521Z,965.31
2016-07-06T07:01:23.537Z,965.3
2016-07-06T07:02:23.540Z,965.32
2016-07-06T07:03:23.556Z,965.24
2016-07-06T07:04:23.563Z,965.3
2016-07-06T07:05:23.577Z,965.31
2016-07-06T07:06:23.583Z,965.3
2016-07-06T07:07:23.590Z,965.26
2016-07-06T07:08:23.597Z,965.28
2016-07-06T07:09:23.610Z,965.32
2016-07-06T07:10:23.613Z,965.3
2016-07-06T07:11:23.629Z,965.29
2016-07-06T07:12:23.641Z,965.28
2016-07-06T07:13:23.646Z,965.31
2016-07-06T07:14:23.655Z,965.32
2016-07-06T07:15:23.670Z,965.33
2016-07-06T07:16:23.675Z,965.35
2016-07-06T07:17:23.677Z,965.34
2016-07-06T07:18:23.697Z,965.39
2016-07-06T07:19:23.708Z,965.36
2016-07-06T07:20:23.711Z,965.4
2016-07-06T07:21:23.725Z,965.41
2016-07-06T07:22:23.738Z,965.42
2016-07-06T07:23:23.745Z,965.38
2016-07-06T07:24:23.754Z,965.36
2016-07-06T07:25:23.760Z,965.39
2016-07-06T07:26:23.764Z,965.34
2016-07-06T07:27:23.783Z,965.31
2016-07-06T07:28:23.784Z,965.29
2016-07-06T07:29:23.800Z,965.34
2016-07-06T07:30:23.802Z,965.31
2016-07-06T07:31:23.814Z,965.4
2016-07-06T07:32:23.823Z,965.38
2016-07-06T07:33:23.839Z,965.36
2016-07-06T07:34:23.845Z,965.36
2016-07-06T07:35:23.855Z,965.45
2016-07-06T07:36:23.864Z,965.42
2016-07-06T07:37:23.873Z,965.4
2016-07-06T07:38:23.879Z,965.41
2016-07-06T07:39:23.890Z,965.37
2016-07-06T07:40:23.905Z,965.35
2016-07-06T07:41:23.901Z,965.37
2016-07-06T07:42:23.913Z,965.4
2016-07-06T07:43:23.920Z,965.42
2016-07-06T07:44:23.931Z,965.41
2016-07-06T07:45:23.946Z,965.44
2016-07-06T07:46:23.947Z,965.45
2016-07-06T07:47:23.964Z,965.43
2016-07-06T07:48:23.974Z,965.47
2016-07-06T07:49:23.984Z,965.46
2016-07-06T07:50:23.994Z,965.47
2016-07-06T07:51:23.995Z,965.43
2016-07-06T07:52:24.005Z,965.43
2016-07-06T07:53:24.016Z,965.39
2016-07-06T07:54:24.033Z,965.41
2016-07-06T07:55:24.033Z,965.48
2016-07-06T07:56:24.053Z,965.51
2016-07-06T07:57:24.059Z,965.53
2016-07-06T07:58:24.057Z,965.51
2016-07-06T07:59:24.065Z,965.53
2016-07-06T08:00:24.090Z,965.5
2016-07-06T08:01:24.095Z,965.51
2016-07-06T08:02:24.101Z,965.5
2016-07-06T08:03:24.113Z,965.52
2016-07-06T08:04:24.126Z,965.5
2016-07-06T08:05:24.133Z,965.53
2016-07-06T08:06:24.139Z,965.55
2016-07-06T08:07:24.152Z,965.48
2016-07-06T08:08:24.159Z,965.53
2016-07-06T08:09:24.170Z,965.5
2016-07-06T08:10:24.176Z,965.5
2016-07-06T08:11:24.186Z,965.58
2016-07-06T08:12:24.197Z,965.51
2016-07-06T08:13:24.197Z,965.43
2016-07-06T08:14:24.220Z,965.49
2016-07-06T08:15:24.225Z,965.46
2016-07-06T08:16:24.230Z,965.45
2016-07-06T08:17:24.242Z,965.5
2016-07-06T08:18:24.245Z,965.5
2016-07-06T08:19:24.255Z,965.43
2016-07-06T08:20:24.260Z,965.46
2016-07-06T08:21:24.268Z,965.48
2016-07-06T08:22:24.281Z,965.46
2016-07-06T08:23:24.298Z,965.5
2016-07-06T08:24:24.299Z,965.52
2016-07-06T08:25:24.308Z,965.52
2016-07-06T08:26:24.325Z,965.54
2016-07-06T08:27:24.338Z,965.53
2016-07-06T08:28:24.336Z,965.52
2016-07-06T08:29:24.359Z,965.55
2016-07-06T08:30:24.358Z,965.52
2016-07-06T08:31:24.375Z,965.51
2016-07-06T08:32:24.385Z,965.51
2016-07-06T08:33:24.392Z,965.49
2016-07-06T08:34:24.397Z,965.5
2016-07-06T08:35:24.406Z,965.55
2016-07-06T08:36:24.412Z,965.51
2016-07-06T08:37:24.425Z,965.55
2016-07-06T08:38:24.432Z,965.51
2016-07-06T08:39:24.445Z,965.49
2016-07-06T08:40:24.448Z,965.49
2016-07-06T08:41:24.454Z,965.53
2016-07-06T08:42:24.477Z,965.55
2016-07-06T08:43:24.486Z,965.51
2016-07-06T08:44:24.486Z,965.54
2016-07-06T08:45:24.500Z,965.54
2016-07-06T08:46:24.506Z,965.49
2016-07-06T08:47:24.513Z,965.55
2016-07-06T08:48:24.534Z,965.61
2016-07-06T08:49:24.533Z,965.57
2016-07-06T08:50:24.546Z,965.56
2016-07-06T08:51:24.561Z,965.58
2016-07-06T08:52:24.570Z,965.57
2016-07-06T08:53:24.571Z,965.61
2016-07-06T08:54:24.581Z,965.64
2016-07-06T08:55:24.599Z,965.6
2016-07-06T08:56:24.610Z,965.62
2016-07-06T08:57:24.609Z,965.62
2016-07-06T08:58:24.628Z,965.64
2016-07-06T08:59:24.638Z,965.67
2016-07-06T09:00:24.642Z,965.65
2016-07-06T09:01:24.656Z,965.64
2016-07-06T09:02:24.668Z,965.62
2016-07-06T09:03:24.674Z,965.66
2016-07-06T09:04:24.685Z,965.68
2016-07-06T09:05:24.696Z,965.71
2016-07-06T09:06:24.706Z,965.67
2016-07-06T09:07:24.706Z,965.71
2016-07-06T09:08:24.725Z,965.68
2016-07-06T09:09:24.727Z,965.73
2016-07-06T09:10:24.733Z,965.74
2016-07-06T09:11:24.744Z,965.74
2016-07-06T09:12:24.754Z,965.72
2016-07-06T09:13:24.763Z,965.75
2016-07-06T09:14:24.780Z,965.76
2016-07-06T09:15:24.776Z,965.72
2016-07-06T09:16:24.792Z,965.74
2016-07-06T09:17:24.801Z,965.74
2016-07-06T09:18:24.816Z,965.77
2016-07-06T09:19:24.821Z,965.72
2016-07-06T09:20:24.837Z,965.8
2016-07-06T09:21:24.846Z,965.81
2016-07-06T09:22:24.858Z,965.84
2016-07-06T09:23:24.857Z,965.82
2016-07-06T09:24:24.878Z,965.81
2016-07-06T09:25:24.882Z,965.78
2016-07-06T09:26:24.885Z,965.84
2016-07-06T09:27:24.904Z,965.84
2016-07-06T09:28:24.904Z,965.83
2016-07-06T09:29:24.924Z,965.9
2016-07-06T09:30:24.930Z,965.94
2016-07-06T09:31:24.942Z,965.9
2016-07-06T09:32:24.941Z,965.88
2016-07-06T09:33:24.953Z,965.88
2016-07-06T09:34:24.970Z,965.89
2016-07-06T09:35:24.984Z,965.88
2016-07-06T09:36:24.978Z,965.87
2016-07-06T09:37:25.000Z,965.89
2016-07-06T09:38:25.004Z,965.89
2016-07-06T09:39:25.017Z,965.84
2016-07-06T09:40:25.024Z,965.84
2016-07-06T09:41:25.033Z,965.82
2016-07-06T09:42:25.037Z,965.82
2016-07-06T09:43:25.055Z,965.87
2016-07-06T09:44:25.062Z,965.87
2016-07-06T09:45:25.065Z,965.84
2016-07-06T09:46:25.082Z,965.89
2016-07-06T09:47:25.083Z,965.84
2016-07-06T09:48:25.093Z,965.86
2016-07-06T09:49:25.102Z,965.9
2016-07-06T09:50:25.120Z,965.85
2016-07-06T09:51:25.131Z,965.9
2016-07-06T09:52:25.137Z,965.86
2016-07-06T09:53:25.144Z,965.85
2016-07-06T09:54:25.161Z,965.86
2016-07-06T09:55:25.163Z,965.88
2016-07-06T09:56:25.178Z,965.91
2016-07-06T09:57:25.181Z,965.91
2016-07-06T09:58:25.200Z,965.91
2016-07-06T09:59:25.221Z,965.88
2016-07-06T10:00:25.213Z,965.87
2016-07-06T10:01:25.221Z,965.89
2016-07-06T10:02:25.237Z,965.87
2016-07-06T10:03:25.246Z,965.87
2016-07-06T10:04:25.254Z,965.91
2016-07-06T10:05:25.269Z,965.94
2016-07-06T10:06:25.268Z,965.93
2016-07-06T10:07:25.281Z,965.95
2016-07-06T10:08:25.283Z,965.98
2016-07-06T10:09:25.294Z,965.92
2016-07-06T10:10:25.303Z,965.87
2016-07-06T10:11:25.317Z,965.94
2016-07-06T10:12:25.333Z,965.94
2016-07-06T10:13:25.335Z,965.9
2016-07-06T10:14:25.346Z,965.94
2016-07-06T10:15:25.362Z,965.94
2016-07-06T10:16:25.365Z,965.93
2016-07-06T10:17:25.374Z,965.96
2016-07-06T10:18:25.380Z,966.01
2016-07-06T10:19:25.392Z,966
2016-07-06T10:20:25.410Z,966.04
2016-07-06T10:21:25.419Z,966.02
2016-07-06T10:22:25.423Z,966.05
2016-07-06T10:23:25.443Z,966
2016-07-06T10:24:25.442Z,966.02
2016-07-06T10:25:25.458Z,966
2016-07-06T10:26:25.470Z,966.03
2016-07-06T10:27:25.472Z,966.02
2016-07-06T10:28:25.481Z,966.07
2016-07-06T10:29:25.489Z,966.14
2016-07-06T10:30:25.502Z,966.15
2016-07-06T10:31:25.510Z,966.1
2016-07-06T10:32:25.521Z,966.14
2016-07-06T10:33:25.540Z,966.17
2016-07-06T10:34:25.539Z,966.06
2016-07-06T10:35:25.543Z,966.13
2016-07-06T10:36:25.567Z,966.19
2016-07-06T10:37:25.577Z,966.14
2016-07-06T10:38:25.579Z,966.15
2016-07-06T10:39:25.587Z,966.12
2016-07-06T10:40:25.596Z,966.08
2016-07-06T10:41:25.606Z,966.11
2016-07-06T10:42:25.625Z,966.09
2016-07-06T10:43:25.633Z,966.1
2016-07-06T10:44:25.640Z,966.07
2016-07-06T10:45:25.645Z,966.05
2016-07-06T10:46:25.656Z,966.08
2016-07-06T10:47:25.672Z,966.1
2016-07-06T10:48:25.670Z,966.07
2016-07-06T10:49:25.685Z,966.09
2016-07-06T10:50:25.697Z,966.08
2016-07-06T10:51:25.710Z,966.04
2016-07-06T10:52:25.720Z,966.07
2016-07-06T10:53:25.721Z,966.08
2016-07-06T10:54:25.732Z,966.1
2016-07-06T10:55:25.749Z,966.05
2016-07-06T10:56:25.762Z,966.05
2016-07-06T10:57:25.765Z,966.03
2016-07-06T10:58:25.771Z,966.01
2016-07-06T10:59:25.784Z,966.04
2016-07-06T11:00:25.792Z,966.05
2016-07-06T11:01:25.793Z,966.02
2016-07-06T11:02:25.811Z,966.03
2016-07-06T11:03:25.817Z,966
2016-07-06T11:04:25.831Z,966.01
2016-07-06T11:05:25.841Z,965.91
2016-07-06T11:06:25.843Z,965.95
2016-07-06T11:07:25.848Z,965.96
2016-07-06T11:08:25.867Z,965.98
2016-07-06T11:09:25.867Z,965.96
2016-07-06T11:10:25.892Z,965.96
2016-07-06T11:11:25.887Z,965.96
2016-07-06T11:12:25.897Z,965.99
2016-07-06T11:13:25.915Z,966.03
2016-07-06T11:14:25.923Z,965.98
2016-07-06T11:15:25.927Z,965.96
2016-07-06T11:16:25.939Z,966
2016-07-06T11:17:25.942Z,965.97
2016-07-06T11:18:25.953Z,965.97
2016-07-06T11:19:25.961Z,965.95
2016-07-06T11:20:25.971Z,966.01
2016-07-06T11:21:25.982Z,965.94
2016-07-06T11:22:25.989Z,966
2016-07-06T11:23:25.999Z,965.95
2016-07-06T11:24:26.003Z,965.95
2016-07-06T11:25:26.016Z,965.9
2016-07-06T11:26:26.031Z,965.91
2016-07-06T11:27:26.055Z,965.88
2016-07-06T11:28:26.045Z,965.87
2016-07-06T11:29:26.060Z,965.82
2016-07-06T11:30:26.065Z,965.88
2016-07-06T11:31:26.072Z,965.85
2016-07-06T11:32:26.084Z,965.79
2016-07-06T11:33:26.099Z,965.88
2016-07-06T11:34:26.106Z,965.79
2016-07-06T11:35:26.104Z,965.84
2016-07-06T11:36:26.127Z,965.81
2016-07-06T11:37:26.131Z,965.77
2016-07-06T11:38:26.127Z,965.76
2016-07-06T11:39:26.146Z,965.78
2016-07-06T11:40:26.154Z,965.75
2016-07-06T11:41:26.157Z,965.76
2016-07-06T11:42:26.172Z,965.77
2016-07-06T11:43:26.179Z,965.78
2016-07-06T11:44:26.187Z,965.81
2016-07-06T11:45:26.195Z,965.83
2016-07-06T11:46:26.198Z,965.83
2016-07-06T11:47:26.210Z,965.88
2016-07-06T11:48:26.216Z,965.88
2016-07-06T11:49:26.230Z,965.98
2016-07-06T11:50:26.239Z,965.88
2016-07-06T11:51:26.242Z,965.9
2016-07-06T11:52:26.258Z,965.89
2016-07-06T11:53:26.258Z,965.95
2016-07-06T11:54:26.275Z,965.89
2016-07-06T11:55:26.278Z,965.96
2016-07-06T11:56:26.282Z,965.9
2016-07-06T11:57:26.301Z,965.9
2016-07-06T11:58:26.302Z,965.89
2016-07-06T11:59:26.312Z,965.92
2016-07-06T12:00:26.325Z,965.89
2016-07-06T12:01:26.329Z,965.95
2016-07-06T12:02:26.334Z,965.92
2016-07-06T12:03:26.344Z,965.91
2016-07-06T12:04:26.357Z,965.92
2016-07-06T12:05:26.373Z,965.95
2016-07-06T12:06:26.377Z,965.93
2016-07-06T12:07:26.376Z,965.87
2016-07-06T12:08:26.392Z,965.88
2016-07-06T12:09:26.400Z,965.83
2016-07-06T12:10:26.413Z,965.85
2016-07-06T12:11:26.417Z,965.82
2016-07-06T12:12:26.435Z,965.85
2016-07-06T12:13:26.430Z,965.77
2016-07-06T12:14:26.448Z,965.76
2016-07-06T12:15:26.447Z,965.77
2016-07-06T12:16:26.458Z,965.77
2016-07-06T12:17:26.467Z,965.75
2016-07-06T12:18:26.471Z,965.74
2016-07-06T12:19:26.492Z,965.78
2016-07-06T12:20:26.502Z,965.73
2016-07-06T12:21:26.497Z,965.82
2016-07-06T12:22:26.517Z,965.77
2016-07-06T12:23:26.523Z,965.79
2016-07-06T12:24:26.532Z,965.8
2016-07-06T12:25:26.543Z,965.83
2016-07-06T12:26:26.545Z,965.79
2016-07-06T12:27:26.556Z,965.81
2016-07-06T12:28:26.562Z,965.78
2016-07-06T12:29:26.572Z,965.78
2016-07-06T12:30:26.588Z,965.76
2016-07-06T12:31:26.593Z,965.76